createdAt,value
2022-11-14T00:00:02.952Z,0
2022-11-14T00:01:06.357Z,0
2022-11-14T00:03:13.521Z,0
2022-11-14T00:05:18.992Z,0
2022-11-14T00:07:25.710Z,0
2022-11-14T00:08:31.519Z,0
2022-11-14T00:09:35.140Z,0
2022-11-14T00:10:38.571Z,0
2022-11-14T00:12:45.362Z,0
2022-11-14T00:13:48.644Z,0
2022-11-14T00:14:50.784Z,0
2022-11-14T00:15:54.235Z,0
2022-11-14T00:18:01.027Z,0
2022-11-14T00:20:07.631Z,0
2022-11-14T00:21:10.630Z,0
2022-11-14T00:23:16.982Z,0
2022-11-14T00:25:22.636Z,0
2022-11-14T00:27:28.404Z,0
2022-11-14T00:28:34.510Z,0
2022-11-14T00:30:40.570Z,0
2022-11-14T00:32:47.448Z,0
2022-11-14T00:34:53.830Z,0
2022-11-14T00:35:56.627Z,0
2022-11-14T00:38:02.768Z,0
2022-11-14T00:40:08.553Z,0
2022-11-14T00:42:13.714Z,0
2022-11-14T00:43:16.222Z,0
2022-11-14T00:45:23.066Z,0
2022-11-14T00:47:30.031Z,0
2022-11-14T00:49:38.674Z,0
2022-11-14T00:50:41.682Z,0
2022-11-14T00:52:47.570Z,0
2022-11-14T00:54:54.072Z,0
2022-11-14T00:56:59.385Z,0
2022-11-14T00:58:01.920Z,0
2022-11-14T01:00:08.941Z,0
2022-11-14T01:02:15.704Z,0
2022-11-14T01:04:22.082Z,0
2022-11-14T01:05:25.314Z,0
2022-11-14T01:06:28.590Z,0
2022-11-14T01:07:31.400Z,0
2022-11-14T01:09:36.987Z,0
2022-11-14T01:10:39.774Z,0
2022-11-14T01:12:45.976Z,0
2022-11-14T01:14:51.662Z,0
2022-11-14T01:16:58.451Z,0
2022-11-14T01:18:01.262Z,0
2022-11-14T01:20:08.917Z,0
2022-11-14T01:22:15.887Z,0
2022-11-14T01:24:21.260Z,0
2022-11-14T01:25:23.704Z,0
2022-11-14T01:27:28.662Z,0
2022-11-14T01:29:36.327Z,0
2022-11-14T01:30:40.025Z,0
2022-11-14T01:31:43.322Z,0
2022-11-14T01:32:46.845Z,0
2022-11-14T01:34:52.573Z,0
2022-11-14T01:35:55.614Z,0
2022-11-14T01:36:58.924Z,0
2022-11-14T01:38:02.373Z,0
2022-11-14T01:40:07.964Z,0
2022-11-14T01:41:10.462Z,0
2022-11-14T01:42:13.831Z,0
2022-11-14T01:43:16.927Z,0
2022-11-14T01:45:22.475Z,0
2022-11-14T01:46:25.895Z,0
2022-11-14T01:48:34.195Z,0
2022-11-14T01:50:40.675Z,0
2022-11-14T01:51:44.538Z,0
2022-11-14T01:52:48.475Z,0
2022-11-14T01:53:51.263Z,0
2022-11-14T01:55:58.484Z,0
2022-11-14T01:58:04.394Z,0
2022-11-14T01:59:06.547Z,0
2022-11-14T02:01:12.157Z,0
2022-11-14T02:03:17.829Z,0
2022-11-14T02:04:21.098Z,0
2022-11-14T02:06:26.335Z,0
2022-11-14T02:08:35.013Z,0
2022-11-14T02:10:41.093Z,0
2022-11-14T02:11:44.168Z,0
2022-11-14T02:13:50.575Z,0
2022-11-14T02:15:56.454Z,0
2022-11-14T02:17:32.444Z,0
2022-11-14T02:18:35.398Z,0
2022-11-14T02:19:39.521Z,0
2022-11-14T02:21:45.498Z,0
2022-11-14T02:23:52.377Z,0
2022-11-14T02:25:58.036Z,0
2022-11-14T02:27:00.792Z,0
2022-11-14T02:29:07.621Z,0
2022-11-14T02:31:14.138Z,0
2022-11-14T02:33:20.691Z,0
2022-11-14T02:34:24.627Z,0
2022-11-14T02:36:31.568Z,0
2022-11-14T02:38:37.243Z,0
2022-11-14T02:40:43.223Z,0
2022-11-14T02:41:46.017Z,0
2022-11-14T02:43:51.777Z,0
2022-11-14T02:46:06.065Z,0
2022-11-14T02:48:11.735Z,0
2022-11-14T02:49:15.473Z,0
2022-11-14T02:50:19.326Z,0
2022-11-14T02:51:22.806Z,0
2022-11-14T02:53:28.828Z,0
2022-11-14T02:54:32.245Z,0
2022-11-14T02:55:35.362Z,0
2022-11-14T02:56:38.844Z,0
2022-11-14T02:58:43.974Z,0
2022-11-14T02:59:46.966Z,0
2022-11-14T03:01:23.526Z,0
2022-11-14T03:02:27.304Z,0
2022-11-14T03:03:30.112Z,0
2022-11-14T03:04:33.295Z,0
2022-11-14T03:06:39.847Z,0
2022-11-14T03:07:42.648Z,0
2022-11-14T03:08:46.470Z,0
2022-11-14T03:09:49.803Z,0
2022-11-14T03:11:56.943Z,0
2022-11-14T03:13:00.390Z,0
2022-11-14T03:14:03.542Z,0
2022-11-14T03:15:05.987Z,0
2022-11-14T03:17:11.625Z,0
2022-11-14T03:18:14.137Z,0
2022-11-14T03:19:16.677Z,0
2022-11-14T03:20:19.465Z,0
2022-11-14T03:22:26.389Z,0
2022-11-14T03:24:32.466Z,0
2022-11-14T03:26:38.809Z,0
2022-11-14T03:27:41.622Z,0
2022-11-14T03:29:47.851Z,0
2022-11-14T03:31:53.499Z,0
2022-11-14T03:34:00.362Z,0
2022-11-14T03:35:03.140Z,0
2022-11-14T03:37:09.812Z,0
2022-11-14T03:39:16.279Z,0
2022-11-14T03:40:19.555Z,0
2022-11-14T03:41:22.917Z,0
2022-11-14T03:42:26.554Z,0
2022-11-14T03:44:32.176Z,0
2022-11-14T03:45:35.634Z,0
2022-11-14T03:46:39.000Z,0
2022-11-14T03:47:41.711Z,0
2022-11-14T03:49:47.039Z,0
2022-11-14T03:50:49.747Z,0
2022-11-14T03:51:52.854Z,0
2022-11-14T03:52:56.149Z,0
2022-11-14T03:55:02.505Z,0
2022-11-14T03:57:08.299Z,0
2022-11-14T03:58:11.637Z,0
2022-11-14T04:00:17.963Z,0
2022-11-14T04:02:24.287Z,0
2022-11-14T04:03:26.528Z,0
2022-11-14T04:04:29.541Z,0
2022-11-14T04:05:32.684Z,0
2022-11-14T04:07:38.334Z,0
2022-11-14T04:09:44.998Z,0
2022-11-14T04:10:47.874Z,0
2022-11-14T04:12:53.512Z,0
2022-11-14T04:14:58.943Z,0
2022-11-14T04:16:02.016Z,0
2022-11-14T04:17:04.835Z,0
2022-11-14T04:18:08.061Z,0
2022-11-14T04:20:13.884Z,0
2022-11-14T04:22:19.682Z,0
2022-11-14T04:23:23.038Z,0
2022-11-14T04:25:30.828Z,0
2022-11-14T04:27:36.196Z,0
2022-11-14T04:29:43.776Z,0
2022-11-14T04:30:46.912Z,0
2022-11-14T04:32:51.830Z,0
2022-11-14T04:34:57.878Z,0
2022-11-14T04:37:04.574Z,0
2022-11-14T04:38:08.373Z,0
2022-11-14T04:40:15.315Z,0
2022-11-14T04:42:21.743Z,0
2022-11-14T04:44:28.630Z,0
2022-11-14T04:45:32.843Z,0
2022-11-14T04:47:38.399Z,0
2022-11-14T04:49:43.152Z,0
2022-11-14T04:51:50.135Z,0
2022-11-14T04:52:53.527Z,0
2022-11-14T04:54:59.399Z,0
2022-11-14T04:57:06.278Z,0
2022-11-14T04:59:21.509Z,0
2022-11-14T05:00:24.899Z,0
2022-11-14T05:01:28.963Z,0
2022-11-14T05:02:32.160Z,0
2022-11-14T05:04:38.309Z,0
2022-11-14T05:06:48.029Z,0
2022-11-14T05:07:50.498Z,0
2022-11-14T05:09:56.177Z,0
2022-11-14T05:12:03.091Z,0
2022-11-14T05:14:09.434Z,0
2022-11-14T05:15:12.449Z,0
2022-11-14T05:17:19.007Z,0
2022-11-14T05:19:25.515Z,0
2022-11-14T05:21:31.196Z,0
2022-11-14T05:22:34.323Z,0
2022-11-14T05:24:40.788Z,0
2022-11-14T05:26:47.030Z,0
2022-11-14T05:28:53.934Z,0
2022-11-14T05:29:57.298Z,0
2022-11-14T05:32:03.609Z,0
2022-11-14T05:34:10.672Z,0
2022-11-14T05:36:16.266Z,0
2022-11-14T05:37:19.882Z,0
2022-11-14T05:39:24.371Z,0
2022-11-14T05:41:30.392Z,0
2022-11-14T05:43:35.813Z,0
2022-11-14T05:44:39.207Z,0
2022-11-14T05:46:44.885Z,0
2022-11-14T05:48:51.846Z,0
2022-11-14T05:50:57.746Z,0
2022-11-14T05:52:01.088Z,0
2022-11-14T05:54:06.408Z,0
2022-11-14T05:56:11.995Z,0
2022-11-14T05:58:18.705Z,0
2022-11-14T05:59:21.604Z,0
2022-11-14T06:01:28.333Z,0
2022-11-14T06:03:34.778Z,0
2022-11-14T06:05:41.955Z,0
2022-11-14T06:06:44.942Z,0
2022-11-14T06:08:51.727Z,0
2022-11-14T06:10:57.601Z,0
2022-11-14T06:13:02.915Z,0
2022-11-14T06:14:13.219Z,0
2022-11-14T06:15:16.922Z,0
2022-11-14T06:16:19.847Z,0
2022-11-14T06:18:25.766Z,0
2022-11-14T06:19:28.907Z,0
2022-11-14T06:20:32.448Z,0
2022-11-14T06:21:35.563Z,0
2022-11-14T06:23:41.204Z,0
2022-11-14T06:24:44.309Z,0
2022-11-14T06:25:47.113Z,0
2022-11-14T06:26:50.286Z,0
2022-11-14T06:28:56.145Z,0
2022-11-14T06:29:59.417Z,0
2022-11-14T06:31:01.701Z,0
2022-11-14T06:32:05.699Z,0
2022-11-14T06:34:11.973Z,1
2022-11-14T06:36:18.287Z,1
2022-11-14T06:37:21.649Z,1
2022-11-14T06:39:28.580Z,1
2022-11-14T06:41:34.284Z,1
2022-11-14T06:43:40.583Z,1
2022-11-14T06:44:43.184Z,2
2022-11-14T06:46:49.800Z,2
2022-11-14T06:48:55.786Z,2
2022-11-14T06:51:01.386Z,2
2022-11-14T06:52:04.910Z,2
2022-11-14T06:54:11.701Z,3
2022-11-14T06:56:19.060Z,3
2022-11-14T06:58:25.123Z,4
2022-11-14T06:59:27.836Z,4
2022-11-14T07:01:33.613Z,4
2022-11-14T07:03:40.464Z,4
2022-11-14T07:04:43.462Z,5
2022-11-14T07:05:46.521Z,5
2022-11-14T07:06:49.767Z,5
2022-11-14T07:08:55.957Z,5
2022-11-14T07:09:59.098Z,6
2022-11-14T07:11:02.452Z,6
2022-11-14T07:12:05.521Z,6
2022-11-14T07:14:11.113Z,6
2022-11-14T07:15:13.982Z,7
2022-11-14T07:16:17.161Z,7
2022-11-14T07:17:20.610Z,7
2022-11-14T07:19:27.161Z,8
2022-11-14T07:21:33.676Z,8
2022-11-14T07:22:37.018Z,9
2022-11-14T07:24:44.323Z,10
2022-11-14T07:26:50.565Z,11
2022-11-14T07:29:04.656Z,11
2022-11-14T07:30:07.406Z,11
2022-11-14T07:32:14.319Z,12
2022-11-14T07:34:20.414Z,13
2022-11-14T07:36:27.249Z,14
2022-11-14T07:37:30.682Z,14
2022-11-14T07:38:35.175Z,14
2022-11-14T07:39:38.654Z,14
2022-11-14T07:41:45.044Z,17
2022-11-14T07:42:47.581Z,17
2022-11-14T07:43:50.652Z,17
2022-11-14T07:44:53.927Z,18
2022-11-14T07:47:00.108Z,19
2022-11-14T07:48:03.090Z,19
2022-11-14T07:49:05.811Z,22
2022-11-14T07:50:09.172Z,21
2022-11-14T07:52:14.895Z,22
2022-11-14T07:54:22.086Z,24
2022-11-14T07:55:25.972Z,24
2022-11-14T07:57:50.477Z,24
2022-11-14T07:59:56.497Z,25
2022-11-14T08:02:03.559Z,27
2022-11-14T08:03:07.019Z,26
2022-11-14T08:04:10.748Z,27
2022-11-14T08:05:14.150Z,28
2022-11-14T08:07:21.320Z,30
2022-11-14T08:08:24.399Z,27
2022-11-14T08:10:36.259Z,31
2022-11-14T08:11:39.613Z,32
2022-11-14T08:12:42.879Z,31
2022-11-14T08:14:48.808Z,33
2022-11-14T08:15:51.979Z,33
2022-11-14T08:17:58.200Z,33
2022-11-14T08:20:05.125Z,39
2022-11-14T08:22:12.431Z,44
2022-11-14T08:23:15.504Z,39
2022-11-14T08:25:21.467Z,44
2022-11-14T08:27:27.419Z,40
2022-11-14T08:29:34.973Z,44
2022-11-14T08:30:38.244Z,56
2022-11-14T08:32:44.029Z,40
2022-11-14T08:34:49.738Z,54
2022-11-14T08:35:52.563Z,52
2022-11-14T08:36:56.267Z,61
2022-11-14T08:37:59.755Z,75
2022-11-14T08:40:07.333Z,88
2022-11-14T08:42:13.512Z,108
2022-11-14T08:43:16.390Z,142
2022-11-14T08:45:23.000Z,204
2022-11-14T08:47:29.227Z,194
2022-11-14T08:49:38.434Z,229
2022-11-14T08:50:41.773Z,279
2022-11-14T08:52:48.365Z,312
2022-11-14T08:54:55.543Z,214
2022-11-14T08:57:02.516Z,243
2022-11-14T08:58:05.991Z,302
2022-11-14T09:00:12.723Z,400
2022-11-14T09:02:19.551Z,314
2022-11-14T09:04:26.509Z,189
2022-11-14T09:05:29.187Z,233
2022-11-14T09:07:35.906Z,296
2022-11-14T09:09:42.453Z,285
2022-11-14T09:11:48.709Z,247
2022-11-14T09:12:52.152Z,174
2022-11-14T09:14:58.679Z,262
2022-11-14T09:17:08.396Z,221
2022-11-14T09:19:14.676Z,191
2022-11-14T09:20:17.839Z,416
2022-11-14T09:22:24.937Z,358
2022-11-14T09:24:35.362Z,390
2022-11-14T09:26:41.241Z,372
2022-11-14T09:27:44.326Z,307
2022-11-14T09:29:50.605Z,445
2022-11-14T09:31:56.899Z,315
2022-11-14T09:34:02.183Z,474
2022-11-14T09:35:05.620Z,391
2022-11-14T09:37:11.465Z,460
2022-11-14T09:39:18.089Z,477
2022-11-14T09:41:25.443Z,520
2022-11-14T09:42:28.525Z,523
2022-11-14T09:44:36.726Z,524
2022-11-14T09:46:44.392Z,555
2022-11-14T09:47:47.388Z,298
2022-11-14T09:48:50.497Z,530
2022-11-14T09:49:53.623Z,584
2022-11-14T09:51:59.506Z,533
2022-11-14T09:53:02.386Z,575
2022-11-14T09:55:08.096Z,578
2022-11-14T09:57:15.103Z,534
2022-11-14T09:58:18.282Z,571
2022-11-14T09:59:21.910Z,552
2022-11-14T10:00:25.287Z,545
2022-11-14T10:02:32.670Z,538
2022-11-14T10:03:35.739Z,375
2022-11-14T10:05:42.051Z,548
2022-11-14T10:06:45.829Z,560
2022-11-14T10:08:52.968Z,581
2022-11-14T10:10:59.130Z,620
2022-11-14T10:12:02.240Z,595
2022-11-14T10:14:07.961Z,601
2022-11-14T10:16:14.238Z,590
2022-11-14T10:17:18.083Z,479
2022-11-14T10:19:24.886Z,507
2022-11-14T10:20:27.699Z,619
2022-11-14T10:21:31.441Z,580
2022-11-14T10:22:34.423Z,571
2022-11-14T10:24:40.858Z,572
2022-11-14T10:25:46.517Z,591
2022-11-14T10:28:06.765Z,591
2022-11-14T10:30:13.055Z,611
2022-11-14T10:31:16.501Z,592
2022-11-14T10:33:23.153Z,598
2022-11-14T10:35:37.311Z,589
2022-11-14T10:36:40.701Z,596
2022-11-14T10:38:46.772Z,618
2022-11-14T10:40:53.607Z,623
2022-11-14T10:42:09.633Z,599
2022-11-14T10:44:16.679Z,652
2022-11-14T10:45:19.868Z,548
2022-11-14T10:46:22.788Z,648
2022-11-14T10:47:26.286Z,615
2022-11-14T10:49:36.023Z,639
2022-11-14T10:50:39.730Z,624
2022-11-14T10:52:45.942Z,625
2022-11-14T10:54:52.800Z,615
2022-11-14T10:56:11.575Z,679
2022-11-14T10:57:15.227Z,645
2022-11-14T10:58:18.994Z,645
2022-11-14T11:00:25.003Z,611
2022-11-14T11:01:28.926Z,620
2022-11-14T11:02:38.652Z,654
2022-11-14T11:03:42.248Z,645
2022-11-14T11:05:49.436Z,677
2022-11-14T11:06:52.885Z,699
2022-11-14T11:07:55.681Z,675
2022-11-14T11:08:58.681Z,645
2022-11-14T11:11:04.880Z,667
2022-11-14T11:12:08.689Z,628
2022-11-14T11:14:16.149Z,666
2022-11-14T11:16:22.171Z,636
2022-11-14T11:17:43.653Z,652
2022-11-14T11:18:52.941Z,657
2022-11-14T11:19:56.022Z,648
2022-11-14T11:20:59.410Z,654
2022-11-14T11:22:03.111Z,647
2022-11-14T11:24:09.027Z,640
2022-11-14T11:26:14.985Z,638
2022-11-14T11:27:17.987Z,628
2022-11-14T11:29:25.111Z,665
2022-11-14T11:30:28.220Z,638
2022-11-14T11:31:31.062Z,625
2022-11-14T11:32:33.575Z,653
2022-11-14T11:34:40.427Z,664
2022-11-14T11:35:43.505Z,656
2022-11-14T11:36:46.296Z,672
2022-11-14T11:37:49.288Z,673
2022-11-14T11:39:55.634Z,660
2022-11-14T11:40:58.764Z,657
2022-11-14T11:42:12.047Z,648
2022-11-14T11:43:44.587Z,628
2022-11-14T11:45:51.684Z,632
2022-11-14T11:46:54.700Z,606
2022-11-14T11:47:57.861Z,591
2022-11-14T11:49:01.468Z,598
2022-11-14T11:51:08.251Z,535
2022-11-14T11:53:15.312Z,541
2022-11-14T11:54:18.422Z,503
2022-11-14T11:56:24.245Z,548
2022-11-14T11:57:26.756Z,582
2022-11-14T11:58:30.126Z,600
2022-11-14T11:59:32.845Z,577
2022-11-14T12:01:39.764Z,608
2022-11-14T12:02:52.573Z,593
2022-11-14T12:03:56.727Z,590
2022-11-14T12:04:59.850Z,582
2022-11-14T12:07:06.329Z,606
2022-11-14T12:09:12.846Z,598
2022-11-14T12:10:17.130Z,579
2022-11-14T12:12:23.130Z,588
2022-11-14T12:14:29.113Z,549
2022-11-14T12:15:32.476Z,553
2022-11-14T12:17:40.011Z,544
2022-11-14T12:18:43.450Z,533
2022-11-14T12:20:49.993Z,556
2022-11-14T12:23:04.463Z,559
2022-11-14T12:24:07.913Z,566
2022-11-14T12:26:14.351Z,469
2022-11-14T12:27:17.382Z,498
2022-11-14T12:29:27.133Z,431
2022-11-14T12:31:33.913Z,472
2022-11-14T12:32:37.106Z,453
2022-11-14T12:34:44.662Z,459
2022-11-14T12:36:50.937Z,422
2022-11-14T12:37:58.411Z,475
2022-11-14T12:39:02.097Z,409
2022-11-14T12:40:05.343Z,440
2022-11-14T12:42:11.893Z,403
2022-11-14T12:44:18.214Z,299
2022-11-14T12:45:21.397Z,349
2022-11-14T12:47:27.442Z,346
2022-11-14T12:49:37.228Z,403
2022-11-14T12:50:40.685Z,326
2022-11-14T12:52:46.908Z,408
2022-11-14T12:54:53.894Z,195
2022-11-14T12:55:57.342Z,203
2022-11-14T12:58:03.916Z,275
2022-11-14T12:59:07.055Z,207
2022-11-14T13:00:10.110Z,172
2022-11-14T13:01:14.443Z,154
2022-11-14T13:02:24.160Z,176
2022-11-14T13:03:27.897Z,181
2022-11-14T13:04:32.055Z,174
2022-11-14T13:05:34.935Z,152
2022-11-14T13:06:38.293Z,167
2022-11-14T13:07:41.114Z,188
2022-11-14T13:08:44.251Z,171
2022-11-14T13:09:48.334Z,206
2022-11-14T13:11:54.625Z,236
2022-11-14T13:12:57.697Z,108
2022-11-14T13:15:03.701Z,186
2022-11-14T13:17:09.308Z,141
2022-11-14T13:18:12.103Z,128
2022-11-14T13:20:18.808Z,93
2022-11-14T13:22:24.969Z,91
2022-11-14T13:24:33.685Z,105
2022-11-14T13:25:36.854Z,104
2022-11-14T13:28:26.037Z,96
2022-11-14T13:30:32.962Z,81
2022-11-14T13:32:39.332Z,83
2022-11-14T13:33:42.138Z,86
2022-11-14T13:35:49.058Z,78
2022-11-14T13:36:51.917Z,79
2022-11-14T13:37:55.264Z,74
2022-11-14T13:38:58.096Z,73
2022-11-14T13:41:05.129Z,70
2022-11-14T13:42:08.021Z,69
2022-11-14T13:44:13.719Z,67
2022-11-14T13:45:17.086Z,66
2022-11-14T13:47:23.873Z,64
2022-11-14T13:49:30.513Z,62
2022-11-14T13:50:34.153Z,61
2022-11-14T13:51:46.355Z,60
2022-11-14T13:52:49.710Z,58
2022-11-14T13:54:55.569Z,56
2022-11-14T13:55:58.189Z,56
2022-11-14T13:57:01.547Z,55
2022-11-14T13:58:04.721Z,54
2022-11-14T14:00:21.924Z,53
2022-11-14T14:01:26.062Z,52
2022-11-14T14:02:29.096Z,50
2022-11-14T14:03:34.517Z,49
2022-11-14T14:04:37.590Z,48
2022-11-14T14:06:44.551Z,46
2022-11-14T14:08:51.837Z,45
2022-11-14T14:09:55.478Z,44
2022-11-14T14:12:01.368Z,43
2022-11-14T14:13:05.136Z,42
2022-11-14T14:15:10.369Z,41
2022-11-14T14:16:14.362Z,40
2022-11-14T14:17:17.446Z,39
2022-11-14T14:18:19.893Z,38
2022-11-14T14:20:31.073Z,36
2022-11-14T14:21:33.798Z,35
2022-11-14T14:23:40.535Z,34
2022-11-14T14:24:44.003Z,33
2022-11-14T14:26:50.322Z,32
2022-11-14T14:27:52.787Z,31
2022-11-14T14:28:56.133Z,30
2022-11-14T14:29:59.967Z,29
2022-11-14T14:31:02.512Z,29
2022-11-14T14:33:07.208Z,28
2022-11-14T14:35:14.083Z,26
2022-11-14T14:36:17.523Z,26
2022-11-14T14:37:20.973Z,25
2022-11-14T14:38:24.634Z,24
2022-11-14T14:40:31.414Z,23
2022-11-14T14:41:35.428Z,22
2022-11-14T14:43:41.142Z,21
2022-11-14T14:45:47.684Z,20
2022-11-14T14:46:51.171Z,19
2022-11-14T14:47:54.326Z,18
2022-11-14T14:48:57.711Z,18
2022-11-14T14:51:03.650Z,17
2022-11-14T14:52:06.836Z,16
2022-11-14T14:54:12.799Z,15
2022-11-14T14:55:16.244Z,14
2022-11-14T14:57:25.582Z,13
2022-11-14T14:59:31.273Z,12
2022-11-14T15:00:35.098Z,11
2022-11-14T15:02:41.518Z,10
2022-11-14T15:04:46.812Z,9
2022-11-14T15:05:49.934Z,9
2022-11-14T15:07:56.490Z,8
2022-11-14T15:08:59.197Z,7
2022-11-14T15:11:06.243Z,6
2022-11-14T15:13:13.244Z,5
2022-11-14T15:14:16.407Z,5
2022-11-14T15:15:19.906Z,5
2022-11-14T15:16:23.430Z,4
2022-11-14T15:18:32.413Z,4
2022-11-14T15:19:35.975Z,3
2022-11-14T15:20:38.857Z,3
2022-11-14T15:21:42.324Z,3
2022-11-14T15:23:47.840Z,2
2022-11-14T15:24:51.013Z,2
2022-11-14T15:26:58.306Z,2
2022-11-14T15:29:05.536Z,1
2022-11-14T15:30:08.170Z,1
2022-11-14T15:32:14.800Z,1
2022-11-14T15:34:20.328Z,0
2022-11-14T15:35:27.869Z,0
2022-11-14T15:37:34.132Z,0
2022-11-14T15:38:46.778Z,0
2022-11-14T15:39:50.139Z,0
2022-11-14T15:40:53.516Z,0
2022-11-14T15:42:59.511Z,0
2022-11-14T15:45:05.997Z,0
2022-11-14T15:46:16.845Z,0
2022-11-14T15:48:24.132Z,0
2022-11-14T15:50:30.523Z,0
2022-11-14T15:51:33.358Z,0
2022-11-14T15:53:40.204Z,0
2022-11-14T15:55:47.129Z,0
2022-11-14T15:56:50.481Z,0
2022-11-14T15:58:50.155Z,0
2022-11-14T15:59:55.259Z,0
2022-11-14T16:00:59.137Z,0
2022-11-14T16:02:02.848Z,0
2022-11-14T16:04:08.995Z,0
2022-11-14T16:06:14.044Z,0
2022-11-14T16:07:17.378Z,0
2022-11-14T16:08:20.237Z,0
2022-11-14T16:09:23.130Z,0
2022-11-14T16:11:29.472Z,0
2022-11-14T16:12:33.116Z,0
2022-11-14T16:14:40.140Z,0
2022-11-14T16:16:46.827Z,0
2022-11-14T16:18:52.958Z,0
2022-11-14T16:19:55.931Z,0
2022-11-14T16:22:02.136Z,0
2022-11-14T16:24:07.927Z,0
2022-11-14T16:25:10.995Z,0
2022-11-14T16:27:17.657Z,0
2022-11-14T16:29:24.480Z,0
2022-11-14T16:31:31.548Z,0
2022-11-14T16:32:34.550Z,0
2022-11-14T16:34:41.789Z,0
2022-11-14T16:36:47.507Z,0
2022-11-14T16:38:54.677Z,0
2022-11-14T16:39:57.676Z,0
2022-11-14T16:42:04.294Z,0
2022-11-14T16:44:11.328Z,0
2022-11-14T16:45:14.682Z,0
2022-11-14T16:47:20.692Z,0
2022-11-14T16:49:26.628Z,0
2022-11-14T16:51:52.350Z,0
2022-11-14T16:53:58.779Z,0
2022-11-14T16:55:01.387Z,0
2022-11-14T16:57:07.357Z,0
2022-11-14T16:59:13.863Z,0
2022-11-14T17:01:24.308Z,0
2022-11-14T17:02:27.737Z,0
2022-11-14T17:04:37.066Z,0
2022-11-14T17:06:43.354Z,0
2022-11-14T17:08:49.178Z,0
2022-11-14T17:09:52.256Z,0
2022-11-14T17:11:59.053Z,0
2022-11-14T17:14:05.666Z,0
2022-11-14T17:16:11.167Z,0
2022-11-14T17:17:15.201Z,0
2022-11-14T17:19:21.386Z,0
2022-11-14T17:21:28.423Z,0
2022-11-14T17:23:34.998Z,0
2022-11-14T17:24:37.819Z,0
2022-11-14T17:26:44.252Z,0
2022-11-14T17:28:50.142Z,0
2022-11-14T17:30:57.413Z,0
2022-11-14T17:32:01.143Z,0
2022-11-14T17:33:03.888Z,0
2022-11-14T17:34:07.360Z,0
2022-11-14T17:36:13.027Z,0
2022-11-14T17:37:16.461Z,0
2022-11-14T17:38:19.824Z,0
2022-11-14T17:39:23.200Z,0
2022-11-14T17:41:29.170Z,0
2022-11-14T17:42:32.457Z,0
2022-11-14T17:43:43.688Z,0
2022-11-14T17:44:46.334Z,0
2022-11-14T17:46:52.857Z,0
2022-11-14T17:48:59.124Z,0
2022-11-14T17:50:02.666Z,0
2022-11-14T17:51:06.020Z,0
2022-11-14T17:52:09.540Z,0
2022-11-14T17:54:15.508Z,0
2022-11-14T17:56:21.395Z,0
2022-11-14T17:57:24.671Z,0
2022-11-14T17:59:30.658Z,0
2022-11-14T18:01:36.209Z,0
2022-11-14T18:03:43.023Z,0
2022-11-14T18:04:46.043Z,0
2022-11-14T18:06:53.131Z,0
2022-11-14T18:08:59.988Z,0
2022-11-14T18:11:06.328Z,0
2022-11-14T18:12:08.872Z,0
2022-11-14T18:14:15.140Z,0
2022-11-14T18:16:21.351Z,0
2022-11-14T18:18:26.966Z,0
2022-11-14T18:19:30.199Z,0
2022-11-14T18:21:36.128Z,0
2022-11-14T18:23:42.119Z,0
2022-11-14T18:25:48.380Z,0
2022-11-14T18:26:51.739Z,0
2022-11-14T18:28:57.451Z,0
2022-11-14T18:30:43.308Z,0
2022-11-14T18:31:46.609Z,0
2022-11-14T18:33:52.295Z,0
2022-11-14T18:35:59.032Z,0
2022-11-14T18:38:05.963Z,0
2022-11-14T18:39:08.854Z,0
2022-11-14T18:40:18.994Z,0
2022-11-14T18:41:22.047Z,0
2022-11-14T18:43:28.329Z,0
2022-11-14T18:45:33.988Z,0
2022-11-14T18:46:39.470Z,0
2022-11-14T18:47:42.356Z,0
2022-11-14T18:48:45.808Z,0
2022-11-14T18:50:52.778Z,0
2022-11-14T18:53:00.089Z,0
2022-11-14T18:54:03.519Z,0
2022-11-14T18:56:10.656Z,0
2022-11-14T18:58:17.387Z,0
2022-11-14T19:00:23.476Z,0
2022-11-14T19:01:26.737Z,0
2022-11-14T19:03:34.889Z,0
2022-11-14T19:05:40.498Z,0
2022-11-14T19:07:46.638Z,0
2022-11-14T19:08:49.757Z,0
2022-11-14T19:10:56.253Z,0
2022-11-14T19:13:02.881Z,0
2022-11-14T19:14:06.251Z,0
2022-11-14T19:15:09.963Z,0
2022-11-14T19:16:13.255Z,0
2022-11-14T19:18:18.982Z,0
2022-11-14T19:20:24.928Z,0
2022-11-14T19:21:28.369Z,0
2022-11-14T19:23:35.817Z,0
2022-11-14T19:25:42.447Z,0
2022-11-14T19:26:44.991Z,0
2022-11-14T19:27:48.709Z,0
2022-11-14T19:28:51.557Z,0
2022-11-14T19:30:58.361Z,0
2022-11-14T19:33:04.235Z,0
2022-11-14T19:34:07.676Z,0
2022-11-14T19:35:20.707Z,0
2022-11-14T19:37:02.798Z,0
2022-11-14T19:38:06.201Z,0
2022-11-14T19:39:09.294Z,0
2022-11-14T19:41:15.741Z,0
2022-11-14T19:43:21.302Z,0
2022-11-14T19:45:27.434Z,0
2022-11-14T19:46:30.215Z,0
2022-11-14T19:48:35.746Z,0
2022-11-14T19:50:41.311Z,0
2022-11-14T19:52:47.803Z,0
2022-11-14T19:53:51.276Z,0
2022-11-14T19:55:57.075Z,0
2022-11-14T19:58:02.499Z,0
2022-11-14T19:59:24.984Z,0
2022-11-14T20:00:28.011Z,0
2022-11-14T20:01:31.768Z,0
2022-11-14T20:02:35.117Z,0
2022-11-14T20:03:38.476Z,0
2022-11-14T20:05:45.711Z,0
2022-11-14T20:07:52.589Z,0
2022-11-14T20:08:56.238Z,0
2022-11-14T20:11:02.818Z,0
2022-11-14T20:13:09.180Z,0
2022-11-14T20:15:15.824Z,0
2022-11-14T20:16:18.270Z,0
2022-11-14T20:18:24.532Z,0
2022-11-14T20:20:30.038Z,0
2022-11-14T20:21:32.841Z,0
2022-11-14T20:22:35.934Z,0
2022-11-14T20:23:39.199Z,0
2022-11-14T20:25:46.298Z,0
2022-11-14T20:27:51.832Z,0
2022-11-14T20:29:58.476Z,0
2022-11-14T20:31:01.837Z,0
2022-11-14T20:33:07.443Z,0
2022-11-14T20:35:13.384Z,0
2022-11-14T20:36:16.649Z,0
2022-11-14T20:37:20.322Z,0
2022-11-14T20:38:23.321Z,0
2022-11-14T20:40:29.907Z,0
2022-11-14T20:41:33.013Z,0
2022-11-14T20:42:36.393Z,0
2022-11-14T20:43:40.044Z,0
2022-11-14T20:45:46.604Z,0
2022-11-14T20:47:51.954Z,0
2022-11-14T20:48:54.779Z,0
2022-11-14T20:49:57.611Z,0
2022-11-14T20:51:00.330Z,0
2022-11-14T20:53:05.933Z,0
2022-11-14T20:55:14.097Z,0
2022-11-14T20:56:16.888Z,0
2022-11-14T20:57:19.910Z,0
2022-11-14T20:58:23.327Z,0
2022-11-14T21:00:30.845Z,0
2022-11-14T21:01:44.213Z,0
2022-11-14T21:02:47.448Z,0
2022-11-14T21:03:50.447Z,0
2022-11-14T21:05:56.333Z,0
2022-11-14T21:08:03.244Z,0
2022-11-14T21:10:08.300Z,0
2022-11-14T21:11:11.188Z,0
2022-11-14T21:13:17.964Z,0
2022-11-14T21:15:24.202Z,0
2022-11-14T21:16:27.312Z,0
2022-11-14T21:18:35.873Z,0
2022-11-14T21:20:41.188Z,0
2022-11-14T21:22:47.665Z,0
2022-11-14T21:23:50.745Z,0
2022-11-14T21:25:57.083Z,0
2022-11-14T21:28:02.225Z,0
2022-11-14T21:29:04.707Z,0
2022-11-14T21:30:07.903Z,0
2022-11-14T21:31:10.986Z,0
2022-11-14T21:33:17.427Z,0
2022-11-14T21:35:23.259Z,0
2022-11-14T21:36:56.059Z,0
2022-11-14T21:37:59.692Z,0
2022-11-14T21:39:03.113Z,0
2022-11-14T21:41:07.819Z,0
2022-11-14T21:42:20.446Z,0
2022-11-14T21:43:24.170Z,0
2022-11-14T21:45:30.140Z,0
2022-11-14T21:47:36.417Z,0
2022-11-14T21:48:43.762Z,0
2022-11-14T21:50:49.106Z,0
2022-11-14T21:52:54.704Z,0
2022-11-14T21:54:59.903Z,0
2022-11-14T21:56:03.177Z,0
2022-11-14T21:57:12.548Z,0
2022-11-14T21:58:15.353Z,0
2022-11-14T22:00:21.504Z,0
2022-11-14T22:02:27.613Z,0
2022-11-14T22:03:30.638Z,0
2022-11-14T22:05:37.381Z,0
2022-11-14T22:07:43.269Z,0
2022-11-14T22:09:48.220Z,0
2022-11-14T22:10:51.597Z,0
2022-11-14T22:12:57.117Z,0
2022-11-14T22:15:03.615Z,0
2022-11-14T22:17:10.431Z,0
2022-11-14T22:18:14.156Z,0
2022-11-14T22:20:19.976Z,0
2022-11-14T22:22:26.606Z,0
2022-11-14T22:24:34.536Z,0
2022-11-14T22:25:37.589Z,0
2022-11-14T22:27:43.378Z,0
2022-11-14T22:29:49.097Z,0
2022-11-14T22:30:51.899Z,0
2022-11-14T22:32:57.844Z,0
2022-11-14T22:35:03.002Z,0
2022-11-14T22:36:06.082Z,0
2022-11-14T22:38:12.384Z,0
2022-11-14T22:40:18.560Z,0
2022-11-14T22:42:25.066Z,0
2022-11-14T22:43:28.446Z,0
2022-11-14T22:45:34.285Z,0
2022-11-14T22:47:41.015Z,0
2022-11-14T22:49:46.847Z,0
2022-11-14T22:50:49.661Z,0
2022-11-14T22:52:56.448Z,0
2022-11-14T22:55:02.503Z,0
2022-11-14T22:56:05.570Z,0
2022-11-14T22:57:08.007Z,0
2022-11-14T22:58:10.173Z,0
2022-11-14T23:00:16.582Z,0
2022-11-14T23:01:19.746Z,0
2022-11-14T23:03:26.319Z,0
2022-11-14T23:05:32.587Z,0
2022-11-14T23:07:39.319Z,0
2022-11-14T23:08:42.653Z,0
2022-11-14T23:10:48.723Z,0
2022-11-14T23:12:54.056Z,0
2022-11-14T23:13:57.204Z,0
2022-11-14T23:15:00.006Z,0
2022-11-14T23:16:03.444Z,0
2022-11-14T23:18:09.245Z,0
2022-11-14T23:20:18.640Z,0
2022-11-14T23:21:21.482Z,0
2022-11-14T23:23:28.899Z,0
2022-11-14T23:25:35.540Z,0
2022-11-14T23:27:40.855Z,0
2022-11-14T23:28:44.220Z,0